EGPA

Kirkwall Airport

Orkney Islands, United Kingdom
METAR EGPA 251450Z 19017KT 9999 VCSH FEW015 SCT024 BKN030 12/08 Q1016
Observed Flight Rules
Sep-25 @ 14:50 UTC (44 minutes ago) Marginal Visual Flight Rules
Wind Visibility Clouds
190° at 17 knots 10,000+ meters
  • Few at 1,500' AGL
  • Scattered at 2,400' AGL
  • Broken at 3,000' AGL
Temperatures Readings
Current 12°C / 54°F
Dewpoint 8°C / 46°F
Humidity 77%
Altimeter 30" Hg
Pressure 1016 hPa
Elevation 21
METAR EGPA 251450Z 19017KT 9999 VCSH FEW015 SCT024 BKN030 12/08 Q1016
Observed Flight Rules
Sep-25 @ 14:50 UTC
(44 minutes ago)
MVFR
Wind Visibility
190° at 17 knots 10,000+ meters
Clouds
  • Few at 1,500' AGL
  • Scattered at 2,400' AGL
  • Broken at 3,000' AGL
Temperature Dewpoint
12°C / 54°F 8°C / 46°F
Humidity Altimeter Pressure
77% 30" Hg 1016 hPa